Time;durP1;ratioP1;P1;durP2;ratioP2;P2;SDS_P1;SDS_P2;PMS_P1;PMS_P2;Temp;Humidity;BMP_temperature;BMP_pressure;BME280_temperature;BME280_humidity;BME280_pressure;Samples;Min_cycle;Max_cycle;Signal;HPM_P1;HPM_P2
2022/06/04 00:01:48;;;;;;;10.98;9.70;;;16.40;99.90;;;;;;4963327;28;20031;-88
2022/06/04 00:04:16;;;;;;;9.90;8.95;;;16.30;99.90;;;;;;4959179;28;20491;-88
2022/06/04 00:06:43;;;;;;;11.18;10.05;;;16.30;99.90;;;;;;4971162;28;20101;-88
2022/06/04 00:09:10;;;;;;;10.25;9.35;;;16.20;99.90;;;;;;4972760;28;20034;-88
2022/06/04 00:15:29;;;;;;;11.88;11.00;;;16.10;99.90;;;;;;4969418;28;20029;-87
2022/06/04 00:17:24;;;;;;;14.13;12.82;;;16.10;99.90;;;;;;4961140;28;20036;-87
2022/06/04 00:19:50;;;;;;;13.57;12.38;;;16.00;99.90;;;;;;4963758;28;20039;-91
2022/06/04 00:22:17;;;;;;;13.25;12.35;;;16.00;99.90;;;;;;4976589;28;20037;-87
2022/06/04 00:24:44;;;;;;;13.32;12.43;;;16.00;99.90;;;;;;4968170;28;20042;-88
2022/06/04 00:27:18;;;;;;;14.82;13.60;;;15.90;99.90;;;;;;4973558;28;20470;-88
2022/06/04 00:29:44;;;;;;;13.60;12.40;;;15.90;99.90;;;;;;4961063;28;20042;-88
2022/06/04 00:32:10;;;;;;;13.02;12.02;;;15.90;99.90;;;;;;4946947;29;20027;-88
2022/06/04 00:34:36;;;;;;;12.40;11.50;;;15.90;99.90;;;;;;4962245;28;20031;-88
2022/06/04 00:37:02;;;;;;;12.10;9.82;;;15.80;99.90;;;;;;4966345;28;20073;-90
2022/06/04 00:39:29;;;;;;;11.45;10.65;;;15.80;99.90;;;;;;4973504;28;20023;-87
2022/06/04 00:42:13;;;;;;;15.73;14.23;;;15.80;99.90;;;;;;4964861;28;20328;-87
2022/06/04 00:45:16;;;;;;;13.35;12.40;;;15.80;99.90;;;;;;4951197;28;20094;-88
2022/06/04 00:47:42;;;;;;;12.30;11.30;;;15.80;99.90;;;;;;4967048;28;20023;-88
2022/06/04 00:50:09;;;;;;;36.30;12.93;;;15.80;99.90;;;;;;4962167;28;20034;-88
2022/06/04 00:52:35;;;;;;;29.88;14.32;;;15.80;99.90;;;;;;4955306;28;20038;-88
2022/06/04 00:55:04;;;;;;;17.00;14.80;;;15.80;99.90;;;;;;4953836;28;20022;-89
2022/06/04 00:57:51;;;;;;;95.90;17.20;;;15.80;99.90;;;;;;4974002;28;20026;-88
2022/06/04 01:00:22;;;;;;;57.38;15.25;;;15.90;99.90;;;;;;4960744;28;20066;-88
2022/06/04 01:03:10;;;;;;;77.00;14.93;;;15.90;99.90;;;;;;4959203;28;20051;-88
2022/06/04 01:05:58;;;;;;;53.60;14.13;;;15.90;99.90;;;;;;4969970;28;20672;-89
2022/06/04 01:08:51;;;;;;;78.20;15.70;;;16.00;99.90;;;;;;4965001;28;20518;-88
2022/06/04 01:11:20;;;;;;;15.00;13.70;;;16.00;99.90;;;;;;4952433;28;20084;-88
2022/06/04 01:14:09;;;;;;;14.45;13.35;;;16.00;99.90;;;;;;4953882;28;20055;-88
2022/06/04 01:17:06;;;;;;;13.48;12.10;;;16.10;99.90;;;;;;4953051;28;20035;-88
2022/06/04 01:20:06;;;;;;;14.95;13.82;;;16.10;99.90;;;;;;4967935;28;20457;-88
2022/06/04 01:22:56;;;;;;;13.55;12.32;;;16.10;99.90;;;;;;4972989;28;20030;-88
2022/06/04 01:25:24;;;;;;;13.60;12.40;;;16.10;99.90;;;;;;4960967;28;20035;-88
2022/06/04 01:27:53;;;;;;;13.25;12.00;;;16.20;99.90;;;;;;4969877;28;20033;-86
2022/06/04 01:30:27;;;;;;;12.23;11.10;;;16.10;99.90;;;;;;4970626;28;20015;-89
2022/06/04 01:33:23;;;;;;;12.95;11.77;;;16.20;99.90;;;;;;4959420;28;20054;-88
2022/06/04 01:35:56;;;;;;;16.13;11.90;;;16.10;99.90;;;;;;4969318;28;20528;-88
2022/06/04 01:38:33;;;;;;;12.90;11.80;;;16.10;99.90;;;;;;4968911;28;20067;-88
2022/06/04 01:41:37;;;;;;;12.55;11.55;;;16.10;99.90;;;;;;4967515;28;20034;-89
2022/06/04 01:44:15;;;;;;;11.70;10.85;;;16.10;99.90;;;;;;4872847;29;20045;-90
2022/06/04 01:46:51;;;;;;;13.60;12.13;;;16.10;99.90;;;;;;4957356;28;20035;-90
2022/06/04 01:49:37;;;;;;;11.98;11.00;;;16.10;99.90;;;;;;4952850;28;20110;-88
2022/06/04 01:52:08;;;;;;;12.32;11.32;;;16.10;99.90;;;;;;4969812;28;20037;-88
2022/06/04 01:54:49;;;;;;;12.13;10.82;;;16.10;99.90;;;;;;4966007;28;20038;-91
2022/06/04 01:57:24;;;;;;;12.65;11.40;;;16.00;99.90;;;;;;4963222;28;20439;-90
2022/06/04 01:59:58;;;;;;;10.45;9.55;;;16.10;99.90;;;;;;4962729;28;20039;-89
2022/06/04 02:02:39;;;;;;;11.90;11.07;;;16.00;99.90;;;;;;4946367;28;20038;-89
2022/06/04 02:05:11;;;;;;;13.13;11.17;;;16.00;99.90;;;;;;4968158;28;20035;-89
2022/06/04 02:07:41;;;;;;;27.45;13.73;;;16.00;99.90;;;;;;4967099;28;20039;-88
2022/06/04 02:10:16;;;;;;;94.57;16.80;;;16.00;99.90;;;;;;4963863;28;20038;-88
2022/06/04 02:12:44;;;;;;;15.15;13.95;;;16.00;99.90;;;;;;4963814;28;20039;-89
2022/06/04 02:15:16;;;;;;;15.93;11.30;;;16.00;99.90;;;;;;4962369;28;20031;-88
2022/06/04 02:17:46;;;;;;;12.20;11.30;;;15.90;99.90;;;;;;4953182;29;20035;-88
2022/06/04 02:20:13;;;;;;;12.98;11.82;;;16.00;99.90;;;;;;4963537;28;20059;-88
2022/06/04 02:22:39;;;;;;;71.88;15.00;;;15.90;99.90;;;;;;4971253;28;20062;-88
2022/06/04 02:25:07;;;;;;;64.00;14.80;;;15.90;99.90;;;;;;4968792;28;20491;-89
2022/06/04 02:27:34;;;;;;;160.63;18.20;;;15.90;99.90;;;;;;4974387;28;20121;-89
2022/06/04 02:30:00;;;;;;;94.47;16.88;;;15.90;99.90;;;;;;4975329;28;20098;-88
2022/06/04 02:32:34;;;;;;;230.15;22.25;;;15.90;99.90;;;;;;4973703;28;20064;-89
2022/06/04 02:35:06;;;;;;;226.25;20.98;;;15.90;99.90;;;;;;4970072;28;20581;-88
2022/06/04 02:37:55;;;;;;;164.07;20.25;;;16.00;99.90;;;;;;4965494;28;20082;-88
2022/06/04 02:40:37;;;;;;;184.40;20.20;;;16.00;99.90;;;;;;4969158;28;20034;-88
2022/06/04 02:43:06;;;;;;;367.58;27.38;;;16.00;99.90;;;;;;4973372;28;20030;-88
2022/06/04 02:45:41;;;;;;;210.25;25.13;;;16.00;99.90;;;;;;4978534;28;20086;-88
2022/06/04 02:48:12;;;;;;;132.63;21.40;;;16.00;99.90;;;;;;4968876;28;20047;-88
2022/06/04 02:50:43;;;;;;;201.07;24.15;;;16.00;99.90;;;;;;4958926;28;20035;-90
2022/06/04 02:53:11;;;;;;;143.05;20.95;;;16.00;99.90;;;;;;4974765;28;20038;-88
2022/06/04 02:55:44;;;;;;;194.50;22.92;;;16.00;99.90;;;;;;4955680;28;20039;-88
2022/06/04 02:58:15;;;;;;;90.85;20.60;;;16.00;99.90;;;;;;4971071;28;20395;-89
2022/06/04 03:00:41;;;;;;;84.53;19.60;;;16.00;99.90;;;;;;4948830;28;20018;-89
2022/06/04 03:03:12;;;;;;;123.25;21.75;;;16.00;99.90;;;;;;4952644;28;20020;-88
2022/06/04 03:05:39;;;;;;;134.07;23.40;;;16.00;99.90;;;;;;4968897;28;20023;-88
2022/06/04 03:08:06;;;;;;;154.02;23.55;;;15.90;99.90;;;;;;4959887;28;20399;-88
2022/06/04 03:10:34;;;;;;;171.93;25.50;;;15.90;99.90;;;;;;4960871;28;20028;-87
2022/06/04 03:12:59;;;;;;;48.75;19.30;;;15.90;99.90;;;;;;4945648;28;20484;-88
2022/06/04 03:15:26;;;;;;;89.28;21.42;;;15.80;99.90;;;;;;4969785;28;20031;-89
2022/06/04 03:17:52;;;;;;;34.70;20.85;;;15.90;99.90;;;;;;4953927;28;20027;-89
2022/06/04 03:20:22;;;;;;;204.45;24.17;;;15.90;99.90;;;;;;4969476;28;20049;-88
2022/06/04 03:22:48;;;;;;;38.92;18.20;;;15.90;99.90;;;;;;4949594;28;20059;-89
2022/06/04 03:25:13;;;;;;;81.35;19.60;;;15.90;99.90;;;;;;4972657;28;20367;-88
2022/06/04 03:27:39;;;;;;;108.25;20.52;;;15.90;99.90;;;;;;4973934;28;20113;-89
2022/06/04 03:30:06;;;;;;;88.38;21.15;;;15.90;99.90;;;;;;4947152;28;20036;-88
2022/06/04 03:32:33;;;;;;;245.57;24.08;;;15.90;99.90;;;;;;4959796;28;20043;-88
2022/06/04 03:34:58;;;;;;;107.15;18.35;;;16.00;99.90;;;;;;4961680;28;20020;-88
2022/06/04 03:37:24;;;;;;;213.57;22.02;;;16.00;99.90;;;;;;4962889;28;20841;-89
2022/06/04 03:39:50;;;;;;;242.48;23.90;;;16.00;99.90;;;;;;4960027;28;20034;-89
2022/06/04 03:42:16;;;;;;;137.65;20.83;;;16.00;99.90;;;;;;4970376;28;20019;-89
2022/06/04 03:44:46;;;;;;;101.25;19.33;;;16.00;99.90;;;;;;4970130;28;20323;-88
2022/06/04 03:47:13;;;;;;;84.30;19.43;;;16.10;99.90;;;;;;4967597;28;20031;-88
2022/06/04 03:49:38;;;;;;;77.70;16.63;;;16.10;99.90;;;;;;4967187;28;20338;-89
2022/06/04 03:52:05;;;;;;;144.05;19.30;;;16.10;99.90;;;;;;4966171;28;20541;-90
2022/06/04 04:00:22;;;;;;;61.25;17.50;;;16.10;99.90;;;;;;4972673;28;20126;-88
2022/06/04 04:02:55;;;;;;;171.00;20.35;;;16.10;99.90;;;;;;4952291;28;20042;-89
2022/06/04 04:05:25;;;;;;;136.73;20.27;;;16.10;99.90;;;;;;4974044;28;20022;-88
2022/06/04 04:07:51;;;;;;;116.10;20.10;;;16.10;99.90;;;;;;4971475;28;20023;-85
2022/06/04 04:10:18;;;;;;;100.00;19.02;;;16.20;99.90;;;;;;4949012;28;20030;-88
2022/06/04 04:12:44;;;;;;;38.40;16.40;;;16.20;99.90;;;;;;4962871;28;20483;-88
2022/06/04 04:15:11;;;;;;;183.77;20.38;;;16.30;99.90;;;;;;4971871;28;20038;-89
2022/06/04 04:17:39;;;;;;;101.80;17.85;;;16.40;99.90;;;;;;4972527;28;20031;-89
2022/06/04 04:20:11;;;;;;;74.25;18.67;;;16.40;99.90;;;;;;4970414;28;20047;-87
2022/06/04 04:22:37;;;;;;;135.45;19.40;;;16.40;99.90;;;;;;4966113;28;20451;-88
2022/06/04 04:25:04;;;;;;;44.78;16.92;;;16.40;99.90;;;;;;4950075;28;20039;-88
2022/06/04 04:27:30;;;;;;;39.70;16.10;;;16.30;99.90;;;;;;4947036;29;20027;-88
2022/06/04 04:29:56;;;;;;;58.28;17.98;;;16.40;99.90;;;;;;4968837;28;20371;-89
2022/06/04 04:32:21;;;;;;;37.65;18.42;;;16.30;99.90;;;;;;4967360;28;20031;-88
2022/06/04 04:34:47;;;;;;;21.17;17.23;;;16.30;99.90;;;;;;4945027;28;20031;-89
2022/06/04 04:37:13;;;;;;;79.65;17.88;;;16.40;99.90;;;;;;4969998;28;20041;-88
2022/06/04 04:39:38;;;;;;;140.30;19.83;;;16.40;99.90;;;;;;4956898;28;20030;-89
2022/06/04 04:42:04;;;;;;;126.00;19.48;;;16.40;99.90;;;;;;4963122;28;20041;-89
2022/06/04 04:44:30;;;;;;;101.60;19.48;;;16.40;99.90;;;;;;4963070;28;20170;-88
2022/06/04 04:46:56;;;;;;;21.33;16.48;;;16.40;99.90;;;;;;4963507;28;20055;-88
2022/06/04 04:49:22;;;;;;;69.57;17.95;;;16.40;99.90;;;;;;4962383;28;20023;-89
2022/06/04 04:51:48;;;;;;;83.63;18.10;;;16.50;99.90;;;;;;4953749;28;20034;-88
2022/06/04 04:54:15;;;;;;;31.77;16.10;;;16.50;99.90;;;;;;4969396;28;20026;-88
2022/06/04 04:56:40;;;;;;;51.35;15.80;;;16.60;99.90;;;;;;4958808;28;20034;-89
2022/06/04 04:59:07;;;;;;;58.35;16.45;;;16.70;99.90;;;;;;4962809;28;20036;-89
2022/06/04 05:01:33;;;;;;;16.15;14.95;;;16.70;99.90;;;;;;4968763;28;20053;-88
2022/06/04 05:03:59;;;;;;;14.05;13.05;;;16.90;99.90;;;;;;4967867;28;20035;-87
2022/06/04 05:06:25;;;;;;;14.00;12.70;;;17.00;99.90;;;;;;4961570;28;20090;-88
2022/06/04 05:08:54;;;;;;;12.13;11.32;;;17.10;99.90;;;;;;4958120;28;20035;-87
2022/06/04 05:11:24;;;;;;;11.32;10.32;;;17.30;99.90;;;;;;4965548;28;20039;-88
2022/06/04 05:13:50;;;;;;;11.98;11.07;;;17.60;99.90;;;;;;4956713;28;20198;-89
2022/06/04 05:16:18;;;;;;;13.50;12.30;;;17.80;99.90;;;;;;4948646;28;20531;-88
2022/06/04 05:18:44;;;;;;;13.73;12.30;;;17.90;99.90;;;;;;4969274;28;20034;-88
2022/06/04 05:21:26;;;;;;;14.77;12.48;;;17.90;99.90;;;;;;4950105;28;20035;-89
2022/06/04 05:23:57;;;;;;;13.13;12.02;;;17.80;99.90;;;;;;4962899;28;20471;-88
2022/06/04 05:26:23;;;;;;;10.38;9.68;;;17.80;99.90;;;;;;4968601;28;20121;-88
2022/06/04 05:28:50;;;;;;;12.27;11.38;;;17.90;99.90;;;;;;4949475;28;20512;-88
2022/06/04 05:31:17;;;;;;;11.32;10.50;;;18.10;99.90;;;;;;4967671;28;20031;-87
2022/06/04 05:33:43;;;;;;;10.75;9.85;;;18.30;99.90;;;;;;4970258;28;20175;-88
2022/06/04 05:36:09;;;;;;;11.38;10.48;;;18.50;99.90;;;;;;4963099;28;20510;-88
2022/06/04 05:38:34;;;;;;;10.73;10.02;;;19.00;99.90;;;;;;4957184;28;20102;-88
2022/06/04 05:41:02;;;;;;;12.35;11.18;;;19.20;99.90;;;;;;4970932;28;20676;-89
2022/06/04 05:43:29;;;;;;;10.27;9.57;;;19.20;99.90;;;;;;4945663;28;20534;-87
2022/06/04 05:46:08;;;;;;;11.88;10.98;;;19.20;99.90;;;;;;4948012;28;20054;-89
2022/06/04 05:48:37;;;;;;;10.93;10.13;;;19.10;99.90;;;;;;4959672;28;20103;-88
2022/06/04 05:51:03;;;;;;;11.10;10.20;;;19.00;99.90;;;;;;4967198;28;20564;-89
2022/06/04 05:53:29;;;;;;;10.30;9.60;;;18.90;99.90;;;;;;4965984;28;20026;-87
2022/06/04 05:55:55;;;;;;;11.30;10.50;;;18.80;99.90;;;;;;4950177;28;20034;-88
2022/06/04 05:58:20;;;;;;;9.95;9.35;;;18.80;99.90;;;;;;4963623;28;20142;-88
2022/06/04 06:00:46;;;;;;;11.68;10.68;;;18.80;99.90;;;;;;4948719;28;20122;-89
2022/06/04 06:03:12;;;;;;;9.80;9.13;;;18.90;99.90;;;;;;4977431;28;20086;-88
2022/06/04 06:05:45;;;;;;;10.93;10.02;;;19.20;99.90;;;;;;4954371;28;20470;-88
2022/06/04 06:08:12;;;;;;;9.23;8.52;;;19.60;99.90;;;;;;4961992;28;20046;-88
2022/06/04 06:10:42;;;;;;;11.02;10.07;;;19.80;99.90;;;;;;4969961;28;20035;-89
2022/06/04 06:13:08;;;;;;;10.30;9.60;;;20.00;99.90;;;;;;4957024;28;20537;-88
2022/06/04 06:15:35;;;;;;;10.82;10.00;;;20.20;99.90;;;;;;4971877;28;20058;-88
2022/06/04 06:18:01;;;;;;;9.93;9.13;;;20.30;99.90;;;;;;4948641;28;20042;-88
2022/06/04 06:20:27;;;;;;;10.32;9.52;;;20.50;99.90;;;;;;4947998;28;20043;-88
2022/06/04 06:22:52;;;;;;;9.88;9.15;;;21.00;99.90;;;;;;4956639;28;20043;-87
2022/06/04 06:25:18;;;;;;;10.27;9.57;;;22.00;99.90;;;;;;4964180;28;20042;-88
2022/06/04 06:27:44;;;;;;;9.35;8.45;;;23.30;99.90;;;;;;4967975;28;20094;-89
2022/06/04 06:30:10;;;;;;;7.95;7.45;;;24.90;99.90;;;;;;4945846;29;20039;-89
2022/06/04 06:32:36;;;;;;;8.23;7.72;;;25.90;99.90;;;;;;4964368;28;20065;-88
2022/06/04 06:35:03;;;;;;;7.97;7.47;;;26.50;99.90;;;;;;4968541;28;20027;-89
2022/06/04 06:37:29;;;;;;;8.57;7.97;;;26.40;99.90;;;;;;4966622;28;20376;-87
2022/06/04 06:39:55;;;;;;;8.88;8.07;;;26.20;99.90;;;;;;4963874;28;20041;-89
2022/06/04 06:42:22;;;;;;;8.63;8.00;;;25.80;99.90;;;;;;4955753;29;20086;-89
2022/06/04 06:44:47;;;;;;;8.57;7.95;;;25.10;99.90;;;;;;4973976;28;20553;-89
2022/06/04 06:47:14;;;;;;;8.07;7.53;;;24.70;99.90;;;;;;4969653;28;20043;-88
2022/06/04 06:49:39;;;;;;;8.70;8.20;;;24.20;99.90;;;;;;4946220;28;20379;-89
2022/06/04 06:52:06;;;;;;;8.82;8.23;;;23.80;99.90;;;;;;4974455;28;20034;-88
2022/06/04 06:54:35;;;;;;;8.15;7.63;;;23.70;99.90;;;;;;4955438;28;20024;-89
2022/06/04 06:57:03;;;;;;;8.82;8.23;;;24.10;99.90;;;;;;4971215;28;20502;-89
2022/06/04 06:59:29;;;;;;;8.85;8.02;;;24.60;99.90;;;;;;4954719;28;20495;-89
2022/06/04 07:01:57;;;;;;;8.05;7.55;;;25.50;99.90;;;;;;4986571;28;20050;-90
2022/06/04 07:04:23;;;;;;;7.82;7.28;;;27.20;99.90;;;;;;4977160;28;20058;-89
2022/06/04 07:06:52;;;;;;;7.30;6.80;;;29.40;94.90;;;;;;4974729;28;20066;-90
2022/06/04 07:09:23;;;;;;;6.47;5.97;;;31.10;79.90;;;;;;4957754;28;20434;-92
2022/06/04 07:11:49;;;;;;;6.40;6.03;;;32.60;65.90;;;;;;4942477;28;20039;-90
2022/06/04 07:14:16;;;;;;;5.50;5.18;;;33.30;62.20;;;;;;4970352;28;20059;-89
2022/06/04 07:16:43;;;;;;;5.50;5.10;;;34.10;58.00;;;;;;4957361;28;20107;-89
2022/06/04 07:19:11;;;;;;;6.25;5.85;;;34.00;58.70;;;;;;4948215;28;20039;-91
2022/06/04 07:21:36;;;;;;;6.50;6.10;;;33.50;58.40;;;;;;4963521;28;20174;-91
2022/06/04 07:24:03;;;;;;;10.15;6.25;;;32.70;58.30;;;;;;4959675;28;20122;-90
2022/06/04 07:26:28;;;;;;;6.95;6.40;;;32.00;61.80;;;;;;4974293;28;20402;-90
2022/06/04 07:28:55;;;;;;;7.63;7.13;;;31.40;63.10;;;;;;4951703;28;20038;-91
2022/06/04 07:31:21;;;;;;;8.10;7.40;;;31.00;66.60;;;;;;4952874;28;20031;-90
2022/06/04 07:33:49;;;;;;;8.18;7.65;;;31.20;69.40;;;;;;4952545;28;20034;-90
2022/06/04 07:36:17;;;;;;;7.28;6.88;;;31.40;68.60;;;;;;4949369;28;20110;-90
2022/06/04 07:38:43;;;;;;;8.07;7.57;;;31.30;64.90;;;;;;4958109;28;20043;-92
2022/06/04 07:41:19;;;;;;;7.97;7.47;;;31.30;63.50;;;;;;4956414;28;20045;-91
2022/06/04 07:43:44;;;;;;;7.45;7.05;;;31.40;63.60;;;;;;4964344;28;20038;-91
2022/06/04 07:46:10;;;;;;;7.88;7.38;;;30.50;66.50;;;;;;4969973;28;20027;-91
2022/06/04 07:48:36;;;;;;;7.72;7.22;;;30.70;66.60;;;;;;4956320;28;20039;-91
2022/06/04 07:51:04;;;;;;;6.85;6.32;;;30.40;68.60;;;;;;4944592;28;20050;-89
2022/06/04 07:53:30;;;;;;;7.45;6.85;;;30.00;76.70;;;;;;4965037;28;20507;-90
2022/06/04 07:55:56;;;;;;;6.88;6.43;;;29.60;78.30;;;;;;4969530;28;20410;-92
2022/06/04 07:58:21;;;;;;;7.03;6.47;;;29.40;81.80;;;;;;4964938;28;20027;-91
2022/06/04 08:00:54;;;;;;;8.38;7.75;;;29.00;87.00;;;;;;4970702;28;20027;-91
2022/06/04 08:03:20;;;;;;;7.82;6.78;;;28.90;90.40;;;;;;4968959;28;20019;-90
2022/06/04 08:05:45;;;;;;;7.25;6.72;;;28.80;91.70;;;;;;4955267;28;20034;-90
2022/06/04 08:08:11;;;;;;;7.43;6.93;;;29.30;92.10;;;;;;4957368;28;20042;-91
2022/06/04 08:10:37;;;;;;;7.65;7.05;;;29.80;79.10;;;;;;4973580;28;20121;-90
2022/06/04 08:13:05;;;;;;;6.00;5.60;;;30.50;75.00;;;;;;4956936;28;20035;-89
2022/06/04 08:15:30;;;;;;;6.80;6.30;;;31.10;74.50;;;;;;4970965;28;20025;-91
2022/06/04 08:17:56;;;;;;;6.60;6.20;;;31.40;65.80;;;;;;4950206;28;20036;-90
2022/06/04 08:20:22;;;;;;;6.72;6.32;;;31.60;64.30;;;;;;4965737;28;20110;-90
2022/06/04 08:22:47;;;;;;;7.10;6.60;;;31.50;66.60;;;;;;4960584;28;20055;-91
2022/06/04 08:25:14;;;;;;;6.40;6.00;;;31.30;64.40;;;;;;4957423;28;20033;-91
2022/06/04 08:27:39;;;;;;;5.93;5.53;;;30.80;65.10;;;;;;4970497;28;20031;-90
2022/06/04 08:30:06;;;;;;;6.50;5.93;;;30.50;72.80;;;;;;4960173;28;20037;-91
2022/06/04 08:32:32;;;;;;;6.53;6.00;;;30.30;74.80;;;;;;4961843;28;20511;-91
2022/06/04 08:34:58;;;;;;;6.93;6.53;;;29.80;71.60;;;;;;4959270;28;20031;-89
2022/06/04 08:37:24;;;;;;;6.60;6.25;;;29.30;81.00;;;;;;4950872;28;20053;-90
2022/06/04 08:39:49;;;;;;;7.25;6.65;;;29.40;86.20;;;;;;4969468;28;20023;-91
2022/06/04 08:42:43;;;;;;;6.05;5.50;;;29.20;84.50;;;;;;4954058;28;20035;-90
2022/06/04 08:45:11;;;;;;;6.05;5.70;;;29.00;99.90;;;;;;4943982;28;20489;-90
2022/06/04 08:47:43;;;;;;;5.85;5.47;;;29.20;91.20;;;;;;4946717;28;20031;-92
2022/06/04 08:50:21;;;;;;;6.47;5.93;;;29.00;90.50;;;;;;4940932;29;20418;-90
2022/06/04 08:52:59;;;;;;;7.47;7.00;;;28.60;99.90;;;;;;4956588;28;20027;-90
2022/06/04 08:58:59;;;;;;;6.60;6.10;;;27.90;99.90;;;;;;4978301;28;20442;-90
2022/06/04 09:01:37;;;;;;;6.95;6.45;;;27.80;99.90;;;;;;4958761;28;20032;-90
2022/06/04 09:04:32;;;;;;;6.68;6.28;;;27.90;99.90;;;;;;4973376;28;20209;-91
2022/06/04 09:07:36;;;;;;;6.22;5.82;;;27.80;99.90;;;;;;4959702;28;20458;-89
2022/06/04 09:10:25;;;;;;;6.00;5.60;;;27.60;99.90;;;;;;4941151;28;20027;-90
2022/06/04 09:13:16;;;;;;;6.60;6.20;;;27.70;99.90;;;;;;4959376;28;20024;-89
2022/06/04 09:15:56;;;;;;;7.60;6.95;;;27.50;99.90;;;;;;4956424;28;20409;-91
2022/06/04 09:18:31;;;;;;;5.88;5.38;;;27.10;99.90;;;;;;4963723;28;20058;-92
2022/06/04 09:21:00;;;;;;;6.25;5.85;;;26.90;99.90;;;;;;4967603;28;20039;-91
2022/06/04 09:23:35;;;;;;;6.30;5.90;;;27.00;99.90;;;;;;4949055;28;20499;-90
2022/06/04 09:26:15;;;;;;;6.53;6.13;;;26.90;99.90;;;;;;4949061;28;20031;-90
2022/06/04 09:29:03;;;;;;;7.30;6.90;;;26.90;99.90;;;;;;4964995;28;20027;-90
2022/06/04 09:31:47;;;;;;;6.65;6.25;;;26.70;99.90;;;;;;4951194;28;20077;-89
2022/06/04 09:34:36;;;;;;;5.40;5.10;;;26.70;99.90;;;;;;4964613;28;20027;-91
2022/06/04 09:37:05;;;;;;;5.82;5.53;;;26.70;99.90;;;;;;4953120;28;20113;-91
2022/06/04 09:39:34;;;;;;;5.75;5.35;;;26.40;99.90;;;;;;4967329;28;20030;-91
2022/06/04 09:42:20;;;;;;;6.20;5.80;;;26.60;99.90;;;;;;4964153;28;20034;-91
2022/06/04 09:44:48;;;;;;;5.80;5.32;;;27.20;99.90;;;;;;4962945;28;20027;-91
2022/06/04 09:47:40;;;;;;;6.50;5.82;;;28.00;99.90;;;;;;4958506;28;20030;-91
2022/06/04 09:50:28;;;;;;;5.53;5.22;;;29.40;98.20;;;;;;4955513;28;20027;-91
2022/06/04 09:53:17;;;;;;;5.88;5.47;;;29.80;80.30;;;;;;4947659;28;20035;-90
2022/06/04 09:55:58;;;;;;;5.15;4.80;;;30.00;94.90;;;;;;4953570;28;20676;-92
2022/06/04 09:58:30;;;;;;;4.47;4.18;;;30.10;78.50;;;;;;4954566;28;20090;-91
2022/06/04 10:01:08;;;;;;;5.15;4.85;;;30.80;81.10;;;;;;4939169;28;20023;-91
2022/06/04 10:03:36;;;;;;;5.10;4.65;;;31.00;69.30;;;;;;4947331;28;20113;-92
2022/06/04 10:06:14;;;;;;;6.07;5.47;;;30.70;79.60;;;;;;4969701;28;20031;-92
2022/06/04 10:11:52;;;;;;;4.03;3.72;;;31.60;78.30;;;;;;4968617;28;20038;-91
2022/06/04 10:14:37;;;;;;;;;;;31.90;67.50;;;;;;4962371;28;20093;-92
2022/06/04 10:17:03;;;;;;;5.47;4.95;;;32.10;71.30;;;;;;4967236;28;19910;-91
2022/06/04 10:19:33;;;;;;;5.35;4.95;;;31.10;66.70;;;;;;4962903;28;20407;-91
2022/06/04 10:22:12;;;;;;;5.88;5.45;;;30.10;69.70;;;;;;4950917;29;20020;-91
2022/06/04 10:24:57;;;;;;;5.93;5.38;;;29.30;73.30;;;;;;4965660;28;20019;-91
2022/06/04 10:27:41;;;;;;;4.07;3.78;;;29.00;88.80;;;;;;4942485;29;20040;-91
2022/06/04 10:30:12;;;;;;;5.57;5.18;;;29.40;82.70;;;;;;4957282;28;20118;-93
2022/06/04 10:32:53;;;;;;;5.50;5.20;;;29.30;80.00;;;;;;4955399;28;20491;-92
2022/06/04 10:35:24;;;;;;;;;;;28.60;84.00;;;;;;4960099;28;20121;-92
2022/06/04 10:38:19;;;;;;;5.30;4.90;;;28.30;90.60;;;;;;4940731;28;19910;-91
2022/06/04 10:41:15;;;;;;;5.70;5.30;;;28.40;95.40;;;;;;4967345;28;20093;-92
2022/06/04 10:43:43;;;;;;;5.07;4.60;;;28.00;93.70;;;;;;4954930;28;20106;-93
2022/06/04 10:46:52;;;;;;;4.88;4.57;;;27.70;99.90;;;;;;4954920;28;20106;-92
2022/06/04 10:49:37;;;;;;;5.10;4.70;;;27.40;99.90;;;;;;4919395;28;20023;-91
2022/06/04 10:52:27;;;;;;;4.88;4.47;;;27.30;99.90;;;;;;4964140;28;20067;-91
2022/06/04 10:55:04;;;;;;;9.65;5.10;;;27.80;99.90;;;;;;4964858;28;20019;-92
2022/06/04 10:57:32;;;;;;;6.00;5.60;;;28.10;99.90;;;;;;4963113;28;20058;-91
2022/06/04 11:00:10;;;;;;;6.95;6.25;;;28.30;99.90;;;;;;4959885;28;20039;-91
2022/06/04 11:02:45;;;;;;;6.03;5.70;;;28.20;96.30;;;;;;4959818;28;20035;-92
2022/06/04 11:05:40;;;;;;;5.68;5.30;;;27.90;99.90;;;;;;4966971;28;20039;-92
2022/06/04 11:08:26;;;;;;;5.50;5.10;;;27.70;99.90;;;;;;4957492;28;20038;-91
2022/06/04 11:10:53;;;;;;;5.68;5.30;;;27.70;99.90;;;;;;4956061;28;20031;-91
2022/06/04 11:13:49;;;;;;;6.10;5.70;;;27.60;99.90;;;;;;4956404;28;20372;-92
2022/06/04 11:16:21;;;;;;;6.18;5.88;;;27.70;99.90;;;;;;4972856;28;20113;-90
2022/06/04 11:18:54;;;;;;;7.45;6.85;;;27.20;99.90;;;;;;4967795;28;20518;-92
2022/06/04 11:21:31;;;;;;;6.18;5.78;;;26.70;99.90;;;;;;4939035;28;20039;-92
2022/06/04 11:24:19;;;;;;;6.00;5.60;;;26.70;99.90;;;;;;4940302;28;20114;-91
2022/06/04 11:27:07;;;;;;;4.65;4.35;;;26.60;99.90;;;;;;4955986;28;20027;-92
2022/06/04 11:29:35;;;;;;;5.60;5.20;;;26.80;99.90;;;;;;4958478;28;20054;-91
2022/06/04 11:32:07;;;;;;;6.00;5.60;;;27.10;99.90;;;;;;4957600;28;20507;-92
2022/06/04 11:35:10;;;;;;;6.07;5.68;;;27.50;99.90;;;;;;4959792;28;20400;-91
2022/06/04 11:37:38;;;;;;;5.40;5.10;;;27.60;99.90;;;;;;4962698;28;20032;-91
2022/06/04 11:40:19;;;;;;;6.38;5.75;;;27.70;99.90;;;;;;4970489;28;20019;-91
2022/06/04 11:42:48;;;;;;;6.50;6.00;;;27.70;99.90;;;;;;4967488;28;20089;-90
2022/06/04 11:45:17;;;;;;;5.07;4.63;;;27.80;99.90;;;;;;4950525;28;20045;-91
2022/06/04 11:48:01;;;;;;;5.75;5.43;;;27.70;99.90;;;;;;4966208;28;20130;-91
2022/06/04 11:50:38;;;;;;;5.50;5.20;;;27.60;99.90;;;;;;4964269;28;20027;-91
2022/06/04 11:53:22;;;;;;;5.38;5.07;;;27.60;99.90;;;;;;4948921;28;20027;-91
2022/06/04 11:55:53;;;;;;;6.65;6.15;;;27.50;99.90;;;;;;4957118;28;20027;-91
2022/06/04 11:58:34;;;;;;;8.60;6.07;;;27.40;99.90;;;;;;4968145;28;20027;-90
2022/06/04 12:01:03;;;;;;;;;;;27.20;99.90;;;;;;4970558;28;20031;-91
2022/06/04 12:03:54;;;;;;;6.20;5.80;;;27.20;99.90;;;;;;4975289;28;19913;-91
2022/06/04 12:06:39;;;;;;;5.88;5.47;;;27.30;99.90;;;;;;4966999;28;20128;-91
2022/06/04 12:09:12;;;;;;;5.80;5.40;;;27.10;99.90;;;;;;4955953;28;20042;-91
2022/06/04 12:12:09;;;;;;;4.97;4.60;;;27.00;99.90;;;;;;4959222;28;20051;-92
2022/06/04 12:14:56;;;;;;;5.38;4.97;;;27.00;99.90;;;;;;4942968;28;20038;-92
2022/06/04 12:17:31;;;;;;;5.32;4.93;;;27.10;99.90;;;;;;4972690;28;20031;-91
2022/06/04 12:25:46;;;;;;;5.20;4.82;;;27.90;99.90;;;;;;4962270;28;20410;-91
2022/06/04 12:28:29;;;;;;;5.18;4.88;;;28.00;99.90;;;;;;4951996;28;20039;-91
2022/06/04 12:30:55;;;;;;;5.35;4.97;;;27.90;99.90;;;;;;4958383;28;20035;-91
2022/06/04 12:33:36;;;;;;;5.78;5.20;;;27.90;99.90;;;;;;4958462;28;20023;-90
2022/06/04 12:36:12;;;;;;;4.65;4.35;;;27.90;99.90;;;;;;4942584;29;20038;-91
2022/06/04 12:38:45;;;;;;;4.93;4.63;;;28.20;99.90;;;;;;4953383;28;20031;-92
2022/06/04 12:41:19;;;;;;;5.25;4.82;;;28.30;99.90;;;;;;4967264;28;20125;-91
2022/06/04 12:43:59;;;;;;;4.28;3.97;;;28.50;99.90;;;;;;4937108;28;20027;-92
2022/06/04 12:46:27;;;;;;;4.18;3.88;;;28.60;99.90;;;;;;4969574;28;20038;-91
2022/06/04 12:49:42;;;;;;;5.00;4.70;;;29.00;98.90;;;;;;4946583;28;20027;-90
2022/06/04 12:52:27;;;;;;;4.88;4.57;;;29.00;94.50;;;;;;4878980;29;20032;-92
2022/06/04 12:55:16;;;;;;;4.60;4.25;;;29.00;99.90;;;;;;4950002;28;20034;-91
2022/06/04 12:57:52;;;;;;;4.18;3.60;;;29.00;92.30;;;;;;4965986;28;20043;-92
2022/06/04 13:00:24;;;;;;;6.90;3.30;;;28.60;99.90;;;;;;4947070;29;20579;-93
2022/06/04 13:02:56;;;;;;;4.28;3.08;;;28.20;99.90;;;;;;4968153;28;20126;-91
2022/06/04 13:05:25;;;;;;;4.57;3.33;;;27.70;99.90;;;;;;4957056;28;20038;-91
2022/06/04 13:08:09;;;;;;;5.07;3.92;;;27.20;99.90;;;;;;4962431;28;20034;-89
2022/06/04 13:11:01;;;;;;;4.72;3.65;;;26.20;99.90;;;;;;4971579;28;20031;-90
2022/06/04 13:13:51;;;;;;;5.85;2.22;;;25.20;99.90;;;;;;4946127;28;20035;-91
2022/06/04 13:16:27;;;;;;;3.03;2.22;;;24.20;99.90;;;;;;4965382;28;20053;-90
2022/06/04 13:19:19;;;;;;;6.05;3.03;;;23.30;99.90;;;;;;4972238;28;20035;-92
2022/06/04 13:21:48;;;;;;;5.85;2.83;;;22.50;99.90;;;;;;4932983;28;20562;-92
2022/06/04 13:24:22;;;;;;;4.13;2.53;;;21.60;99.90;;;;;;4956315;28;20070;-91
2022/06/04 13:26:53;;;;;;;3.08;2.80;;;20.90;99.90;;;;;;4955213;28;20052;-92
2022/06/04 13:29:38;;;;;;;3.53;2.45;;;20.50;99.90;;;;;;4942146;29;20114;-92